• Join FlightAware (Why Join?)
  • Login
  • US Flag 
11:37AM EDT


 

Airport Tracker/Info


-or-


 

Live Flight TrackerFlight Track Log ✈ LMO5117 ✈ 05-May-2013 ✈ KAPF - KFXE

Flight Track Log - Related Links

Times and Time Zones

All times are in EDT time to prevent confusion due to time zone crossing. See the LMO5117 flight status page for this flight to view local times or setup timezone preferences in your user account.

Time Position Orientation Groundspeed Altitude Reporting Facility
EDT Latitude Longitude Course Direction KTS MPH feet Rate Location/Type
05:14PM 26.2839 -81.6433 86° East 250 288 8,800  Level Miami Center
05:15PM 26.2658 -81.5594 103° East 255 293 9,000 60 Climbing Miami Center
05:16PM 26.2436 -81.4706 106° East 267 307 9,000  Level Miami Center
05:17PM 26.0680 -81.3221 106° East  Level FlightAware Approximate
05:17PM 26.2192 -81.3839 107° East 283 326 9,000  Level Miami Center
05:18PM 26.1300 -81.3257 353° North  Level FlightAware Approximate
05:18PM 26.1947 -81.2950 107° East 295 339 9,000  Level Miami Center
05:19PM 26.1984 -81.3355 353° North  Level FlightAware Approximate
05:19PM 26.1681 -81.2083 109° East 295 339 8,300  Level Miami Center
05:21PM 26.1397 -81.1125 108° East 291 335 8,000 -180 Descending Miami Center
05:21PM 26.1231 -81.0378 104° East 290 334 8,000  Level Miami Center
05:22PM 26.1111 -81.0119 117° Southeast 290 334 8,000 -240 Level Miami Center
05:22PM 26.1006 -80.9492 101° East 290 334 7,800 -420 Descending Miami Center
05:23PM 26.0931 -80.9189 105° East 300 345 7,600 -840 Descending Miami Center
05:24PM 26.1017 -80.8314 84° East 284 327 6,700 -960 Descending Miami Center
05:24PM 26.1156 -80.7739 75° East 270 311 6,000 -1,020 Descending Miami Center
05:25PM 26.1269 -80.7442 67° East 291 335 5,700 -900 Descending Miami Center
05:25PM 26.1469 -80.6939 66° East 275 316 5,100 -900 Descending Miami Center
05:26PM 26.1583 -80.6644 67° East 278 320 4,800 -900 Descending Miami Center
05:26PM 26.1783 -80.6164 65° Northeast 275 316 4,200 -900 Descending Miami Center
05:27PM 26.1894 -80.5867 67° East 271 312 3,900 -900 Descending Miami Center
05:27PM 26.2094 -80.5408 64° Northeast 275 316 3,300 -900 Descending Miami Center
05:28PM 26.2206 -80.5089 69° East 266 306 3,000 -420 Descending Miami Center
05:28PM 26.2344 -80.4631 71° East 270 311 2,900  Descending Miami Center
05:29PM 26.2394 -80.4283 81° East 262 302 3,000  Climbing Miami Center
05:29PM 26.2489 -80.3822 77° East 265 305 2,900  Descending Miami Center
05:30PM 26.2497 -80.3431 89° East 275 316 3,000 -240 Climbing Miami Center
05:31PM 26.2536 -80.2644 87° East 236 272 2,600 -540 Descending Miami Center
05:32PM 26.2572 -80.2042 86° East 187 215 2,000 -540 Descending Miami Center
05:33PM 26.2564 -80.1508 91° East 168 193 1,600 -360 Descending Miami Center
05:34PM 26.2214 -80.1200 142° Southeast 151 174 1,300 -540 Descending Miami Center
05:35PM 26.2000 -80.1425 223° Southwest 126 145 600 -780 Descending Miami Center
05:37PM 26.1833 -80.1667 193° South  Level FlightAware Approximate
05:44PM 26.1973 -80.1707 193° South  Level Estimated